Flight Track Log - Related Links

Times and Time Zones

All times are in EDT time to prevent confusion due to time zone crossing. See the AAY853 flight status page for this flight to view local times or setup timezone preferences in your user account.

Time Position Orientation Groundspeed Altitude Reporting Facility
EDT Latitude Longitude Course Direction KTS MPH feet Rate Location/Type
Mon 10:31:03 44.4920 -73.3680 181° South 286 329 5,800  Level FlightAware ADS-B
Mon 10:31:10 44.4860 -73.3680 186° South 285 328 6,100 3,120 Climbing FlightAware ADS-B
Mon 10:31:28 44.4580 -73.3730 191° South 284 327 7,100 3,176 Climbing FlightAware ADS-B
Mon 10:32:01 44.4170 -73.3870 195° South 286 329 8,800 3,000 Climbing FlightAware ADS-B
Mon 10:32:18 44.3940 -73.3950 195° South 291 335 9,600 1,941 Climbing FlightAware ADS-B
Mon 10:32:35 44.3730 -73.4020 192° South 293 337 9,900 500 Climbing FlightAware ADS-B
Mon 10:32:54 44.3470 -73.4090 191° South 289 333 9,900 735 Level FlightAware ADS-B
Mon 10:33:24 44.3070 -73.4180 190° South 303 349 10,500 1,167 Climbing FlightAware ADS-B
Mon 10:34:06 44.2450 -73.4340 191° South 350 403 11,300 1,737 Climbing FlightAware ADS-B
Mon 10:34:40 44.1890 -73.4480 191° South 361 415 12,700 2,434 Climbing FlightAware ADS-B
Mon 10:37:01 43.9541 -73.5065 190° South 395 455 18,400 2,277 Climbing FlightAware ADS-B
Mon 10:38:24 43.7910 -73.5470 191° South 409 471 21,200 1,843 Climbing FlightAware ADS-B
Mon 10:39:21 43.6859 -73.5734 190° South 424 488 22,700 1,478 Climbing FlightAware ADS-B
Mon 10:39:33 43.6600 -73.5800 191° South 430 495 22,900 1,116 Climbing FlightAware ADS-B
Mon 10:40:04 43.6050 -73.5930 191° South 438 504 23,500 1,355 Climbing FlightAware ADS-B
Mon 10:40:35 43.5361 -73.6125 197° South 440 506 24,300 1,515 Climbing FlightAware ADS-B
Mon 10:41:47 43.4013 -73.6918 204° Southwest 447 514 26,100 1,385 Climbing FlightAware ADS-B
Mon 10:42:19 43.3404 -73.7284 204° Southwest 452 520 26,700 1,143 Climbing FlightAware ADS-B
Mon 10:42:50 43.2786 -73.7567 189° South 471 542 27,300 1,114 Climbing FlightAware ADS-B
Mon 10:43:29 43.1897 -73.7643 183° South 487 560 28,000 1,029 Climbing FlightAware ADS-B
Mon 10:44:00 43.1221 -73.7702 184° South 493 567 28,500 985 Climbing FlightAware ADS-B
Mon 10:44:36 43.0516 -73.7766 184° South 502 578 29,100 1,273 Climbing FlightAware ADS-B
Mon 10:45:06 42.9677 -73.7839 184° South 501 577 29,900 914 Climbing FlightAware ADS-B
Mon 10:46:21 42.8019 -73.7989 184° South 502 578 30,700 917 Climbing Boston Center
Mon 10:48:55 42.4531 -73.8949 193° South 478 550 33,400 943 Climbing FlightAware ADS-B (KWWD)
Mon 10:52:11 42.0555 -74.0181 193° South 485 558 36,200 861 Climbing FlightAware ADS-B (KSNC)
Mon 10:52:45 41.9563 -74.0487 193° South 483 556 36,700 938 Climbing FlightAware ADS-B (KSNC)
Mon 10:53:15 41.8865 -74.0701 193° South 480 552 37,200 545 Climbing FlightAware ADS-B (KSNC)
Mon 10:54:02 41.7850 -74.1011 193° South 486 559 37,400 462 Climbing FlightAware ADS-B (KSNC)
Mon 10:54:33 41.7284 -74.1183 193° South 484 557 37,800 514 Climbing FlightAware ADS-B (KSNC)
Mon 10:55:12 41.6481 -74.1428 193° South 484 557 38,000 135 Climbing FlightAware ADS-B (KSNC)
Mon 10:56:02 41.5235 -74.1804 193° South 479 551 38,000  Level FlightAware ADS-B (KSNC)
Mon 10:56:30 41.4640 -74.1980 193° South 476 548 38,000  Level FlightAware ADS-B
Mon 10:56:41 41.4417 -74.2050 193° South 476 548 38,000  Level FlightAware ADS-B (KSNC)
Mon 10:57:00 41.3990 -74.2180 193° South 480 552 38,000  Level FlightAware ADS-B
Mon 10:57:11 41.3780 -74.2243 193° South 480 552 38,000  Level FlightAware ADS-B (KSNC)
Mon 10:57:30 41.3330 -74.2380 193° South 483 556 38,000  Level FlightAware ADS-B
Mon 10:57:53 41.2861 -74.2518 193° South 484 557 38,000 111 Level FlightAware ADS-B (KSNC)
Mon 10:58:24 41.2163 -74.2756 200° South 477 549 38,100 162 Climbing FlightAware ADS-B (KSNC)
Mon 10:58:30 41.2042 -74.2825 196° South 473 544 38,100  Level FlightAware ADS-B (KWWD)
Mon 10:58:46 41.1749 -74.3053 216° Southwest 458 527 38,100  Level FlightAware ADS-B (KSNC)
Mon 10:59:18 41.1260 -74.3646 224° Southwest 445 512 38,100  Level FlightAware ADS-B (KSNC)
Mon 10:59:49 41.0798 -74.4233 224° Southwest 441 507 38,100 -97 Level FlightAware ADS-B (KSNC)
Mon 11:00:20 41.0340 -74.4812 224° Southwest 434 499 38,000 -97 Descending FlightAware ADS-B (KWWD)
Mon 11:00:51 40.9896 -74.5372 224° Southwest 439 505 38,000  Level FlightAware ADS-B (KSNC)
Mon 11:01:39 40.9248 -74.6192 224° Southwest 434 499 38,000  Level FlightAware ADS-B (KWWD)
Mon 11:02:19 40.8596 -74.7001 224° Southwest 434 499 38,000  Level FlightAware ADS-B (KWWD)
Mon 11:02:55 40.8416 -74.7224 223° Southwest 442 509 38,000  Level FlightAware ADS-B (KPHL)
Mon 11:03:27 40.7583 -74.8256 223° Southwest 444 511 38,000  Level FlightAware ADS-B (KWWD)
Mon 11:03:57 40.7132 -74.8813 223° Southwest 445 512 38,000  Level FlightAware ADS-B (KWWD)
Mon 11:04:30 40.6634 -74.9428 223° Southwest 446 513 38,000  Level FlightAware ADS-B (KWWD)
Mon 11:05:01 40.6185 -74.9982 223° Southwest 447 514 38,000  Level FlightAware ADS-B (KPHL)
Mon 11:05:32 40.5704 -75.0575 223° Southwest 448 516 38,000  Level FlightAware ADS-B (KPHL)
Mon 11:06:07 40.5178 -75.1221 224° Southwest 446 513 38,000  Level FlightAware ADS-B (KWWD)
Mon 11:06:37 40.4709 -75.1795 224° Southwest 448 516 38,000  Level FlightAware ADS-B (KWWD)
Mon 11:07:07 40.4253 -75.2351 224° Southwest 449 517 38,000  Level FlightAware ADS-B (KWWD)
Mon 11:07:40 40.3737 -75.2980 224° Southwest 451 519 38,000  Level FlightAware ADS-B (KWWD)
Mon 11:08:18 40.3194 -75.3641 223° Southwest 459 528 38,000  Level FlightAware ADS-B (KPHL)
Mon 11:08:52 40.2629 -75.4326 223° Southwest 459 528 38,000  Level FlightAware ADS-B (KWWD)
Mon 11:09:22 40.2149 -75.4906 223° Southwest 461 531 38,000  Level FlightAware ADS-B (EGBO)
Mon 11:10:01 40.1547 -75.5633 223° Southwest 462 532 38,000  Level FlightAware ADS-B (EGBO)
Mon 11:10:31 40.1153 -75.6109 223° Southwest 463 533 38,000  Level FlightAware ADS-B (EGBO)
Mon 11:11:02 40.0622 -75.6746 223° Southwest 461 531 38,000  Level FlightAware ADS-B (EGBO)
Mon 11:11:34 40.0125 -75.7343 223° Southwest 461 531 38,000  Level FlightAware ADS-B (LFML / MRS)
Mon 11:12:07 39.9572 -75.8006 223° Southwest 460 529 38,000  Level FlightAware ADS-B (LFML / MRS)
Mon 11:12:38 39.9112 -75.8557 223° Southwest 459 528 38,000  Level FlightAware ADS-B (KPHL)
Mon 11:13:12 39.8593 -75.9176 223° Southwest 459 528 38,000  Level FlightAware ADS-B (EGBO)
Mon 11:13:51 39.7941 -75.9952 222° Southwest 458 527 38,000  Level FlightAware ADS-B (EGBO)
Mon 11:14:22 39.7451 -76.0533 222° Southwest 457 526 38,000  Level FlightAware ADS-B (EGBO)
Mon 11:14:52 39.7066 -76.0989 222° Southwest 455 524 38,000  Level FlightAware ADS-B (EGBO)
Mon 11:15:27 39.6434 -76.1737 223° Southwest 455 524 38,000  Level FlightAware ADS-B
Mon 11:15:40 39.6232 -76.1976 223° Southwest 454 522 38,000  Level FlightAware ADS-B
Mon 11:15:46 39.6147 -76.2077 222° Southwest 454 522 38,000  Level FlightAware ADS-B (KWWD)
Mon 11:15:52 39.6353 -76.1834 223° Southwest 454 522 38,000  Level FlightAware ADS-B (KDAA)
Mon 11:16:21 39.5984 -76.2270 222° Southwest 453 521 38,000  Level FlightAware ADS-B (LFML / MRS)
Mon 11:17:13 39.4809 -76.3656 224° Southwest 451 519 38,000  Level FlightAware ADS-B (KDAA)
Mon 11:17:42 39.4403 -76.4220 231° Southwest 446 513 38,000  Level FlightAware ADS-B (KDAA)
Mon 11:17:43 39.4501 -76.4073 231° Southwest 446 513 38,000  Level FlightAware ADS-B
Mon 11:18:13 39.4002 -76.4859 231° Southwest 446 513 38,000  Level FlightAware ADS-B (KDAA)
Mon 11:18:41 39.3649 -76.5414 231° Southwest 446 513 38,000  Level FlightAware ADS-B (KDAA)
Mon 11:18:42 39.3764 -76.5234 231° Southwest 447 514 38,000  Level FlightAware ADS-B (EGBO)
Mon 11:19:12 39.3207 -76.6108 231° Southwest 446 513 38,000  Level FlightAware ADS-B (KDAA)
Mon 11:19:22 39.3079 -76.6308 231° Southwest 442 509 38,000  Level FlightAware ADS-B (KWWD)
Mon 11:19:26 39.3071 -76.6320 231° Southwest 446 513 38,000 182 Level FlightAware ADS-B (KDAA)
Mon 11:19:55 39.2696 -76.6907 231° Southwest 445 512 38,100 130 Climbing FlightAware ADS-B
Mon 11:20:12 39.2424 -76.7333 231° Southwest 443 510 38,100 -128 Level FlightAware ADS-B (KDAA)
Mon 11:20:42 39.2034 -76.7941 231° Southwest 440 506 38,000 -100 Descending FlightAware ADS-B (KDAA)
Mon 11:21:12 39.1648 -76.8541 231° Southwest 438 504 38,000  Level FlightAware ADS-B (KDAA)
Mon 11:21:14 39.1636 -76.8561 231° Southwest 438 504 38,000  Level FlightAware ADS-B
Mon 11:21:19 39.1560 -76.8679 230° Southwest 439 505 38,000  Level FlightAware ADS-B (LFML / MRS)
Mon 11:21:43 39.1338 -76.9025 231° Southwest 438 504 38,000  Level FlightAware ADS-B (KDAA)
Mon 11:21:49 39.1165 -76.9292 231° Southwest 438 504 38,000  Level FlightAware ADS-B
Mon 11:22:12 39.0875 -76.9742 231° Southwest 438 504 38,000  Level FlightAware ADS-B (KDAA)
Mon 11:22:22 39.0737 -76.9953 231° Southwest 435 501 38,000  Level FlightAware ADS-B (KWWD)
Mon 11:22:47 39.0383 -77.0434 225° Southwest 442 509 38,000  Level FlightAware ADS-B (KDAA)
Mon 11:22:48 39.0368 -77.0453 225° Southwest 442 509 38,000  Level FlightAware ADS-B
Mon 11:22:58 39.0231 -77.0614 221° Southwest 445 512 38,000  Level FlightAware ADS-B
Mon 11:23:28 38.9781 -77.1107 221° Southwest 444 511 38,000  Level FlightAware ADS-B (KDAA)
Mon 11:23:57 38.9297 -77.1640 221° Southwest 445 512 38,000  Level FlightAware ADS-B (KDAA)
Mon 11:24:00 38.9256 -77.1684 221° Southwest 445 512 38,000  Level FlightAware ADS-B
Mon 11:24:27 38.8830 -77.2153 221° Southwest 444 511 38,000  Level FlightAware ADS-B (KDAA)
Mon 11:24:39 38.8955 -77.2016 221° Southwest 444 511 38,000  Level FlightAware ADS-B (LFML / MRS)
Mon 11:24:58 38.8364 -77.2663 221° Southwest 443 510 38,000  Level FlightAware ADS-B (KDAA)
Mon 11:25:10 38.8165 -77.2882 221° Southwest 442 509 38,000  Level FlightAware ADS-B
Mon 11:25:27 38.7898 -77.3174 221° Southwest 442 509 38,000  Level FlightAware ADS-B (KDAA)
Mon 11:25:41 38.7673 -77.3420 221° Southwest 442 509 38,000  Level FlightAware ADS-B (KWWD)
Mon 11:25:57 38.7430 -77.3685 221° Southwest 441 507 38,000  Level FlightAware ADS-B (KDAA)
Mon 11:26:12 38.7195 -77.3941 221° Southwest 442 509 38,000  Level FlightAware ADS-B (KWWD)
Mon 11:26:27 38.6970 -77.4186 221° Southwest 441 507 38,000  Level FlightAware ADS-B (KDAA)
Mon 11:26:51 38.6593 -77.4595 221° Southwest 442 509 38,000  Level FlightAware ADS-B
Mon 11:26:57 38.6497 -77.4700 221° Southwest 442 509 38,000  Level FlightAware ADS-B (KDAA)
Mon 11:27:27 38.6022 -77.5215 221° Southwest 444 511 38,000  Level FlightAware ADS-B (KDAA)
Mon 11:27:31 38.5962 -77.5279 221° Southwest 444 511 38,000  Level FlightAware ADS-B
Mon 11:27:49 38.5683 -77.5582 220° Southwest 446 513 38,000  Level FlightAware ADS-B (KWWD)
Mon 11:27:57 38.5561 -77.5714 221° Southwest 446 513 38,000  Level FlightAware ADS-B (KDAA)
Mon 11:28:10 38.5351 -77.5942 220° Southwest 448 516 38,000  Level FlightAware ADS-B (KWWD)
Mon 11:28:27 38.5079 -77.6236 221° Southwest 446 513 38,000  Level FlightAware ADS-B (KDAA)
Mon 11:28:30 38.5025 -77.6295 220° Southwest 448 516 38,000 194 Level FlightAware ADS-B (KWWD)
Mon 11:28:58 38.4621 -77.6732 221° Southwest 448 516 38,100 154 Climbing FlightAware ADS-B (KDAA)
Mon 11:29:09 38.4414 -77.6954 221° Southwest 447 514 38,100  Level FlightAware ADS-B
Mon 11:29:28 38.4120 -77.7270 221° Southwest 447 514 38,100  Level FlightAware ADS-B (KDAA)
Mon 11:29:49 38.3775 -77.7642 221° Southwest 445 512 38,100  Level FlightAware ADS-B
Mon 11:29:58 38.3647 -77.7778 221° Southwest 445 512 38,100 -158 Level FlightAware ADS-B (KDAA)
Mon 11:30:27 38.3179 -77.8281 221° Southwest 443 510 38,000 -188 Descending FlightAware ADS-B (KDAA)
Mon 11:30:30 38.3130 -77.8333 221° Southwest 443 510 38,000  Level FlightAware ADS-B
Mon 11:30:57 38.2724 -77.8768 221° Southwest 442 509 38,000  Level FlightAware ADS-B (KDAA)
Mon 11:31:02 38.2638 -77.8859 220° Southwest 442 509 38,000  Level FlightAware ADS-B (KWWD)
Mon 11:31:20 38.2385 -77.9131 221° Southwest 440 506 38,000  Level FlightAware ADS-B (KDAA)
Mon 11:31:28 38.2225 -77.9302 220° Southwest 441 507 38,000  Level FlightAware ADS-B (KWWD)
Mon 11:32:02 38.1720 -77.9841 220° Southwest 437 503 38,000  Level FlightAware ADS-B (KCHO)
Mon 11:33:11 38.0678 -78.0949 220° Southwest 432 497 38,000  Level FlightAware ADS-B (KCHO)
Mon 11:33:51 38.0022 -78.1646 220° Southwest 431 496 38,000  Level FlightAware ADS-B
Mon 11:34:03 37.9916 -78.1755 217° Southwest 434 499 38,000  Level FlightAware ADS-B (KCHO)
Mon 11:34:09 37.9742 -78.1926 218° Southwest 428 493 38,000  Level FlightAware ADS-B (KWWD)
Mon 11:34:42 37.9226 -78.2405 216° Southwest 435 501 38,000  Level FlightAware ADS-B (KCHO)
Mon 11:35:22 37.8626 -78.2966 217° Southwest 436 502 38,000  Level FlightAware ADS-B (KCHO)
Mon 11:35:49 37.8128 -78.3440 217° Southwest 436 502 38,000  Level FlightAware ADS-B (KCHO)
Mon 11:36:21 37.7728 -78.3821 217° Southwest 436 502 38,000  Level FlightAware ADS-B (KCHO)
Mon 11:37:01 37.6974 -78.4537 217° Southwest 435 501 38,000  Level FlightAware ADS-B (KCHO)
Mon 11:37:19 37.6684 -78.4811 218° Southwest 429 494 38,000  Level FlightAware ADS-B (KWWD)
Mon 11:37:30 37.6573 -78.4916 217° Southwest 436 502 38,000  Level FlightAware ADS-B (KCHO)
Mon 11:38:00 37.6015 -78.5446 218° Southwest 431 496 38,000  Level FlightAware ADS-B (KWWD)
Mon 11:38:31 37.5518 -78.5914 217° Southwest 438 504 38,000  Level FlightAware ADS-B
Mon 11:39:03 37.4986 -78.6415 217° Southwest 439 505 38,000  Level FlightAware ADS-B (KWWD)
Mon 11:39:50 37.4238 -78.7117 217° Southwest 440 506 38,000  Level FlightAware ADS-B
Mon 11:40:32 37.3544 -78.7767 217° Southwest 440 506 38,000  Level FlightAware ADS-B
Mon 11:41:21 37.2758 -78.8501 217° Southwest 441 507 38,000  Level FlightAware ADS-B
Mon 11:42:03 37.2076 -78.9138 217° Southwest 442 509 38,000  Level FlightAware ADS-B (KWWD)
Mon 11:42:48 37.1312 -78.9849 217° Southwest 442 509 38,000  Level FlightAware ADS-B
Mon 11:43:26 37.0690 -79.0427 217° Southwest 442 509 38,000  Level FlightAware ADS-B
Mon 11:44:03 37.0103 -79.0970 217° Southwest 440 506 38,000  Level FlightAware ADS-B (KWWD)
Mon 11:48:10 36.6054 -79.4694 217° Southwest 437 503 38,000  Level FlightAware ADS-B
Mon 11:49:22 36.4882 -79.5763 217° Southwest 442 509 38,000  Level FlightAware ADS-B (EFYL / YLI)
Mon 11:50:41 36.3592 -79.6932 216° Southwest 435 501 38,000  Level FlightAware ADS-B (EFYL / YLI)
Mon 11:51:23 36.2930 -79.7531 216° Southwest 434 499 38,000  Level FlightAware ADS-B (EFYL / YLI)
Mon 11:52:04 36.2653 -79.7782 216° Southwest 434 499 38,000  Level FlightAware ADS-B (EFYL / YLI)
Mon 11:52:41 36.1696 -79.8646 216° Southwest 434 499 38,000  Level FlightAware ADS-B (EFYL / YLI)
Mon 11:53:25 36.0954 -79.9313 216° Southwest 434 499 38,000  Level FlightAware ADS-B (EFYL / YLI)
Mon 11:54:04 36.0268 -79.9832 207° Southwest 436 502 38,000  Level FlightAware ADS-B (EFYL / YLI)
Mon 11:54:45 35.9513 -80.0235 202° Southwest 437 503 38,000  Level FlightAware ADS-B (EFYL / YLI)
Mon 11:55:23 35.8795 -80.0598 202° Southwest 438 504 38,000  Level FlightAware ADS-B (EFYL / YLI)
Mon 11:56:05 35.8041 -80.0979 202° Southwest 439 505 38,000  Level FlightAware ADS-B (EFYL / YLI)
Mon 11:56:45 35.7257 -80.1373 202° Southwest 439 505 38,000  Level FlightAware ADS-B (EFYL / YLI)
Mon 11:57:25 35.6490 -80.1758 202° Southwest 440 506 38,000  Level FlightAware ADS-B (EFYL / YLI)
Mon 11:58:05 35.5735 -80.2136 202° Southwest 439 505 38,000  Level FlightAware ADS-B (EFYL / YLI)
Mon 11:58:44 35.5017 -80.2496 202° Southwest 440 506 38,000  Level FlightAware ADS-B (EFYL / YLI)
Mon 11:59:25 35.4241 -80.2883 202° Southwest 441 507 38,000  Level FlightAware ADS-B (EFYL / YLI)
Mon 12:00:23 35.3191 -80.3407 202° Southwest 441 507 38,000  Level FlightAware ADS-B (EFYL / YLI)
Mon 12:01:01 35.2428 -80.3785 202° Southwest 441 507 38,000  Level FlightAware ADS-B (EFYL / YLI)
Mon 12:01:45 35.1631 -80.4181 202° Southwest 440 506 38,000  Level FlightAware ADS-B (EFYL / YLI)
Mon 12:02:25 35.0827 -80.4578 202° Southwest 440 506 38,000  Level FlightAware ADS-B (EFYL / YLI)
Mon 12:03:05 35.0075 -80.4949 202° Southwest 441 507 38,000  Level FlightAware ADS-B (EFYL / YLI)
Mon 12:03:42 34.9420 -80.5271 202° Southwest 441 507 38,000  Level FlightAware ADS-B (EFYL / YLI)
Mon 12:04:18 34.8680 -80.5636 202° Southwest 441 507 38,000  Level FlightAware ADS-B (EFHN)
Mon 12:04:50 34.8079 -80.5931 202° Southwest 442 509 38,000  Level FlightAware ADS-B (EFHN)
Mon 12:05:22 34.7469 -80.6229 202° Southwest 442 509 38,000  Level FlightAware ADS-B (EFHN)
Mon 12:06:20 34.6353 -80.6775 202° Southwest 446 513 38,000  Level FlightAware ADS-B (EFHN)
Mon 12:07:04 34.5512 -80.7186 202° Southwest 447 514 38,000  Level FlightAware ADS-B (EFHN)
Mon 12:07:36 34.4891 -80.7488 202° Southwest 448 516 38,000  Level FlightAware ADS-B (EFHN)
Mon 12:08:22 34.4018 -80.7912 202° Southwest 451 519 38,000  Level FlightAware ADS-B (EFHN)
Mon 12:09:02 34.3243 -80.8287 202° Southwest 451 519 38,000  Level FlightAware ADS-B (EFHN)
Mon 12:09:35 34.2584 -80.8605 202° Southwest 451 519 38,000  Level FlightAware ADS-B (EFHN)
Mon 12:10:07 34.1969 -80.8903 202° Southwest 452 520 38,000  Level FlightAware ADS-B (EFHN)
Mon 12:10:41 34.1305 -80.9223 202° Southwest 452 520 38,000  Level FlightAware ADS-B (EFHN)
Mon 12:11:21 34.0535 -80.9596 202° Southwest 451 519 38,000  Level FlightAware ADS-B (EFHN)
Mon 12:11:56 33.9848 -80.9925 202° Southwest 449 517 38,000  Level FlightAware ADS-B (EFHN)
Mon 12:12:36 33.9072 -81.0296 202° Southwest 449 517 38,000  Level FlightAware ADS-B (EFHN)
Mon 12:13:06 33.8508 -81.0565 202° Southwest 449 517 38,000  Level FlightAware ADS-B (EFHN)
Mon 12:13:51 33.7636 -81.0994 203° Southwest 447 514 38,000  Level FlightAware ADS-B (EFHN)
Mon 12:14:23 33.7032 -81.1298 203° Southwest 446 513 38,000  Level FlightAware ADS-B (EFHN)
Mon 12:15:06 33.6211 -81.1704 202° Southwest 444 511 38,000  Level FlightAware ADS-B (EFHN)
Mon 12:15:36 33.5647 -81.1982 202° Southwest 444 511 38,000  Level FlightAware ADS-B (EFHN)
Mon 12:16:23 33.4735 -81.2431 202° Southwest 444 511 38,000  Level FlightAware ADS-B (EFHN)
Mon 12:16:53 33.4170 -81.2708 202° Southwest 443 510 38,000  Level FlightAware ADS-B (EFHN)
Mon 12:17:23 33.3598 -81.2988 202° Southwest 442 509 38,000  Level FlightAware ADS-B (EFHN)
Mon 12:18:06 33.2792 -81.3384 202° Southwest 441 507 38,000  Level FlightAware ADS-B (EFHN)
Mon 12:21:55 33.7447 -81.1090 203° Southwest 445 512 38,000  Level FlightAware ADS-B
Mon 12:23:21 32.6989 -81.6236 203° Southwest 449 517 38,000  Level Jacksonville Center
Mon 12:24:21 32.5783 -81.6819 202° Southwest 431 496 38,000  Level Jacksonville Center
Mon 12:25:21 32.4764 -81.7303 202° Southwest 431 496 38,000  Level Jacksonville Center
Mon 12:26:21 32.3539 -81.7883 202° Southwest 436 502 38,000 -250 Level Jacksonville Center
Mon 12:27:21 32.2417 -81.8439 203° Southwest 431 496 37,500 -700 Descending Jacksonville Center
Mon 12:28:21 32.1333 -81.8769 194° South 436 502 36,600 -750 Descending Jacksonville Center
Mon 12:29:21 31.9997 -81.9028 189° South 449 517 36,000 -300 Descending Jacksonville Center
Mon 12:30:21 31.8872 -81.9261 190° South 449 517 36,000  Level Jacksonville Center
Mon 12:31:21 31.7517 -81.9519 189° South 449 517 36,000  Level Jacksonville Center
Mon 12:32:21 31.6286 -81.9750 189° South 449 517 36,000  Level Jacksonville Center
Mon 12:33:21 31.5183 -81.9958 189° South 444 511 36,000  Level Jacksonville Center
Mon 12:34:21 31.3931 -82.0214 190° South 449 517 36,000  Level Jacksonville Center
Mon 12:35:21 31.2722 -82.0442 189° South 449 517 36,000  Level Jacksonville Center
Mon 12:36:21 31.1469 -82.0722 191° South 449 517 36,000  Level Jacksonville Center
Mon 12:37:21 31.0261 -82.0925 188° South 449 517 36,000 -60 Level Jacksonville Center
Mon 12:43:00 30.3130 -82.2232 189° South 448 516 35,600 -207 Descending FlightAware ADS-B
Mon 12:44:06 30.1800 -82.2481 189° South 449 517 34,600 -952 Descending FlightAware ADS-B
Mon 12:45:06 30.0555 -82.2713 189° South 460 529 33,600 -1,008 Descending FlightAware ADS-B
Mon 12:46:05 29.9314 -82.2944 189° South 449 517 32,600 -1,080 Descending FlightAware ADS-B
Mon 12:46:46 29.8469 -82.3101 189° South 445 512 31,800 -1,683 Descending FlightAware ADS-B
Mon 12:47:27 29.7651 -82.3253 189° South 436 502 30,300 -2,220 Descending FlightAware ADS-B
Mon 12:48:26 29.6528 -82.3460 189° South 419 482 28,100 -2,160 Descending FlightAware ADS-B
Mon 12:49:07 29.5708 -82.3565 177° South 408 470 26,700 -1,875 Descending FlightAware ADS-B
Mon 12:49:46 29.4987 -82.3475 174° South 396 456 25,600 -1,818 Descending FlightAware ADS-B
Mon 12:50:46 29.3897 -82.3343 174° South 391 450 23,700 -1,835 Descending FlightAware ADS-B
Mon 12:51:47 29.2856 -82.3221 174° South 377 434 21,900 -1,729 Descending FlightAware ADS-B
Mon 12:52:44 29.1841 -82.3099 174° South 365 420 20,300 -1,677 Descending FlightAware ADS-B
Mon 12:53:20 29.1240 -82.3028 174° South 358 412 19,300 -1,778 Descending FlightAware ADS-B
Mon 12:54:32 29.0129 -82.2897 174° South 347 399 17,100 -1,714 Descending FlightAware ADS-B
Mon 12:55:05 28.9542 -82.2826 174° South 347 399 16,300 -1,531 Descending FlightAware ADS-B
Mon 12:56:10 28.8513 -82.2705 174° South 336 387 14,600 -1,794 Descending FlightAware ADS-B
Mon 12:56:42 28.8015 -82.2645 174° South 341 392 13,400 -1,194 Descending FlightAware ADS-B
Mon 12:59:21 28.5755 -82.2735 213° Southwest 307 353 10,800 -968 Descending FlightAware ADS-B
Mon 12:59:48 28.5528 -82.3075 246° West 312 359 10,400 -938 Descending FlightAware ADS-B
Mon 13:00:25 28.5388 -82.3472 249° West 312 359 9,800 -761 Descending FlightAware ADS-B
Mon 13:00:59 28.5167 -82.4167 249° West 313 360 9,500 -830 Descending Tampa TRACON
Mon 13:01:59 28.4833 -82.5000 246° West 308 354 8,500 -950 Descending Tampa TRACON
Mon 13:02:59 28.4500 -82.6000 249° West 302 348 7,600 -950 Descending Tampa TRACON
Mon 13:03:59 28.4167 -82.6833 246° West 297 342 6,600 -950 Descending Tampa TRACON
Mon 13:04:59 28.3667 -82.7333 221° Southwest 278 320 5,700 -800 Descending Tampa TRACON
Mon 13:05:59 28.2833 -82.7167 170° South 264 304 5,000 -700 Descending Tampa TRACON
Mon 13:06:59 28.2167 -82.7000 168° South 265 305 4,300 -1,091 Descending Tampa TRACON
Mon 13:08:00 28.1500 -82.6833 168° South 265 305 2,800 -1,240 Descending Tampa TRACON
Mon 13:09:00 28.0667 -82.6667 170° South 255 293 1,800 -650 Descending Tampa TRACON
Mon 13:10:00 28.0167 -82.6667 180° South 206 237 1,500 -450 Descending Tampa TRACON
Mon 13:11:00 27.9667 -82.6833 196° South 168 193 900 -650 Descending Tampa TRACON
Mon 13:12:00 27.9333 -82.7000 204° Southwest 125 144 200 -700 Descending Tampa TRACON
Mon 13:14:00 27.9100 -82.6875 310° West  Level Estimated
Mon 13:21:00 27.9100 -82.6875 310° West  Level Estimated

Login

Don't have an account? Register now (free) for customized features, flight alerts, and more!